Rouyn Noranda Airport
CYUY : now visible

Airfield :











YOU CAN JOIN US ON...

 
LOGIN :

Register | Disclaimer

   EN    FR    IT 

 









Legend :    VFR   Marginal VFR   IFR   Intensive IFR   Very Intensive IFR
Visi :
Ceiling :
>= 8 km
>= 3000ft
5 to 8 km
1000 to 3000 ft
1500m to 5 km
500 to 1000 ft
800 to 1500m
200 to 500 ft
< 800m
< 200 ft
Symbols :   Thunderstorms  Fog  Heavy snow  Heavy precipitations  Wind > 20 kt






- Airport Elevation : 988 ft
- IATA code : YUY


CYUY - Rouyn Noranda

CURRENT METAR :
  • 031300Z 26007KT 6SM BR FEW015 OVC025 16/15 A2994 RMK SF3SC5 SLP144 DENSITY ALT 1400FT

EXPIRED METARs :
  • 031200Z 26006KT 15SM FEW012 OVC025 16/15 A2993 RMK SF2SC6 SLP140 DENSITY ALT 1300FT
  • 031124Z 26005KT 15SM SCT012 OVC025 15/15 A2992 RMK SF4SC4 SLP136 DENSITY ALT 1300FT
  • 031100Z 27005KT 15SM BKN012 OVC024 15/15 A2991 RMK SF6SC2 SLP134 DENSITY ALT 1300FT

TAF AMD TAF CYUY
Valid from the 03 at 12:00 until the 04 at 00:00 UTC


031208Z 0312/0324 26008KT P6SM OVC025
TEMPO 0312/0314 5SM -SHRA BR BKN008 OVC012
PROB30 0313/0314 BKN007
FM031400 26008KT P6SM SCT015 BKN025
TEMPO 0314/0318 P6SM -SHRA BKN015 OVC025
BECMG 0316/0318 32008KT
FM032000 29008KT P6SM BKN030 OVC060 RMK NXT FCST BY 031800Z
CZUL FIR / North America



MET'MAP, your aeronautical weather chart ! - Copyright ORBIFLY December 2007 - Disclaimer

ORBIFLY MET'MAP TEAM :

Programming & Development : Alexandra Zaïnal
Concept & original design : Baudouin d'Aumeries
Assistance for programming : Marc-Olivier Méhu
Technical & hardware support : Manuel Goepfert

Contact : metmap@orbifly.com




SOURCES & CREDITS :

   NOAA       Earth
Advisory